sensor_id;sensor_type;location;lat;lon;timestamp;P1;durP1;ratioP1;P2;durP2;ratioP2
41711;SDS011;27399;51.516;13.670;2023-08-06T00:00:39;9.93;;;4.35;;
41711;SDS011;27399;51.516;13.670;2023-08-06T00:03:05;5.15;;;3.97;;
41711;SDS011;27399;51.516;13.670;2023-08-06T00:05:31;9.20;;;4.90;;
41711;SDS011;27399;51.516;13.670;2023-08-06T00:07:57;4.82;;;3.85;;
41711;SDS011;27399;51.516;13.670;2023-08-06T00:10:22;8.80;;;4.13;;
41711;SDS011;27399;51.516;13.670;2023-08-06T00:12:48;6.13;;;4.05;;
41711;SDS011;27399;51.516;13.670;2023-08-06T00:15:14;7.10;;;4.57;;
41711;SDS011;27399;51.516;13.670;2023-08-06T00:17:39;5.80;;;4.32;;
41711;SDS011;27399;51.516;13.670;2023-08-06T00:20:05;5.60;;;4.10;;
41711;SDS011;27399;51.516;13.670;2023-08-06T00:22:35;7.10;;;4.82;;
41711;SDS011;27399;51.516;13.670;2023-08-06T00:25:01;5.43;;;4.17;;
41711;SDS011;27399;51.516;13.670;2023-08-06T00:27:28;6.80;;;3.97;;
41711;SDS011;27399;51.516;13.670;2023-08-06T00:29:54;10.93;;;4.20;;
41711;SDS011;27399;51.516;13.670;2023-08-06T00:32:19;10.35;;;4.20;;
41711;SDS011;27399;51.516;13.670;2023-08-06T00:34:45;9.30;;;4.22;;
41711;SDS011;27399;51.516;13.670;2023-08-06T00:37:11;10.10;;;4.65;;
41711;SDS011;27399;51.516;13.670;2023-08-06T00:39:36;9.18;;;3.78;;
41711;SDS011;27399;51.516;13.670;2023-08-06T00:42:02;8.95;;;4.35;;
41711;SDS011;27399;51.516;13.670;2023-08-06T00:44:28;6.03;;;4.53;;
41711;SDS011;27399;51.516;13.670;2023-08-06T00:46:54;5.93;;;4.53;;
41711;SDS011;27399;51.516;13.670;2023-08-06T00:49:20;10.20;;;4.72;;
41711;SDS011;27399;51.516;13.670;2023-08-06T00:51:46;6.35;;;4.70;;
41711;SDS011;27399;51.516;13.670;2023-08-06T00:54:12;27.95;;;4.93;;
41711;SDS011;27399;51.516;13.670;2023-08-06T00:56:38;9.75;;;4.75;;
41711;SDS011;27399;51.516;13.670;2023-08-06T00:59:05;10.07;;;4.78;;
41711;SDS011;27399;51.516;13.670;2023-08-06T01:01:31;8.10;;;4.60;;
41711;SDS011;27399;51.516;13.670;2023-08-06T01:03:57;11.40;;;5.05;;
41711;SDS011;27399;51.516;13.670;2023-08-06T01:06:27;8.63;;;5.20;;
41711;SDS011;27399;51.516;13.670;2023-08-06T01:09:12;12.02;;;5.25;;
41711;SDS011;27399;51.516;13.670;2023-08-06T01:11:44;8.05;;;4.70;;
41711;SDS011;27399;51.516;13.670;2023-08-06T01:14:27;10.05;;;4.93;;
41711;SDS011;27399;51.516;13.670;2023-08-06T01:16:59;10.57;;;4.90;;
41711;SDS011;27399;51.516;13.670;2023-08-06T01:19:26;7.55;;;4.30;;
41711;SDS011;27399;51.516;13.670;2023-08-06T01:21:52;11.38;;;5.43;;
41711;SDS011;27399;51.516;13.670;2023-08-06T01:24:18;11.25;;;4.88;;
41711;SDS011;27399;51.516;13.670;2023-08-06T01:26:55;9.15;;;4.38;;
41711;SDS011;27399;51.516;13.670;2023-08-06T01:29:31;5.80;;;4.55;;
41711;SDS011;27399;51.516;13.670;2023-08-06T01:32:08;6.05;;;4.50;;
41711;SDS011;27399;51.516;13.670;2023-08-06T01:34:35;7.82;;;4.35;;
41711;SDS011;27399;51.516;13.670;2023-08-06T01:37:05;5.95;;;4.70;;
41711;SDS011;27399;51.516;13.670;2023-08-06T01:39:34;6.13;;;4.85;;
41711;SDS011;27399;51.516;13.670;2023-08-06T01:42:00;5.50;;;4.13;;
41711;SDS011;27399;51.516;13.670;2023-08-06T01:44:26;5.43;;;4.80;;
41711;SDS011;27399;51.516;13.670;2023-08-06T01:46:51;6.82;;;4.15;;
41711;SDS011;27399;51.516;13.670;2023-08-06T01:49:17;6.00;;;4.35;;
41711;SDS011;27399;51.516;13.670;2023-08-06T01:51:42;5.63;;;4.32;;
41711;SDS011;27399;51.516;13.670;2023-08-06T01:54:08;5.90;;;4.65;;
41711;SDS011;27399;51.516;13.670;2023-08-06T01:56:34;5.72;;;4.10;;
41711;SDS011;27399;51.516;13.670;2023-08-06T01:58:59;5.38;;;4.03;;
41711;SDS011;27399;51.516;13.670;2023-08-06T02:01:25;7.20;;;4.47;;
41711;SDS011;27399;51.516;13.670;2023-08-06T02:03:50;6.32;;;4.38;;
41711;SDS011;27399;51.516;13.670;2023-08-06T02:06:16;5.07;;;3.97;;
41711;SDS011;27399;51.516;13.670;2023-08-06T02:08:41;8.15;;;4.38;;
41711;SDS011;27399;51.516;13.670;2023-08-06T02:11:07;7.70;;;4.95;;
41711;SDS011;27399;51.516;13.670;2023-08-06T02:13:33;11.35;;;4.40;;
41711;SDS011;27399;51.516;13.670;2023-08-06T02:15:58;6.45;;;4.78;;
41711;SDS011;27399;51.516;13.670;2023-08-06T02:18:24;8.35;;;4.13;;
41711;SDS011;27399;51.516;13.670;2023-08-06T02:20:56;9.00;;;4.22;;
41711;SDS011;27399;51.516;13.670;2023-08-06T02:23:25;5.30;;;3.72;;
41711;SDS011;27399;51.516;13.670;2023-08-06T02:28:27;11.82;;;4.22;;
41711;SDS011;27399;51.516;13.670;2023-08-06T02:30:53;5.43;;;4.22;;
41711;SDS011;27399;51.516;13.670;2023-08-06T02:33:19;4.90;;;3.88;;
41711;SDS011;27399;51.516;13.670;2023-08-06T02:35:45;10.77;;;4.43;;
41711;SDS011;27399;51.516;13.670;2023-08-06T02:38:10;8.02;;;3.92;;
41711;SDS011;27399;51.516;13.670;2023-08-06T02:40:36;5.13;;;3.90;;
41711;SDS011;27399;51.516;13.670;2023-08-06T02:43:01;7.57;;;3.78;;
41711;SDS011;27399;51.516;13.670;2023-08-06T02:45:29;7.57;;;4.38;;
41711;SDS011;27399;51.516;13.670;2023-08-06T02:47:54;6.68;;;4.32;;
41711;SDS011;27399;51.516;13.670;2023-08-06T02:50:20;8.18;;;4.50;;
41711;SDS011;27399;51.516;13.670;2023-08-06T02:52:45;10.75;;;4.28;;
41711;SDS011;27399;51.516;13.670;2023-08-06T02:55:11;6.80;;;4.45;;
41711;SDS011;27399;51.516;13.670;2023-08-06T02:57:37;7.38;;;4.30;;
41711;SDS011;27399;51.516;13.670;2023-08-06T03:00:02;6.65;;;4.63;;
41711;SDS011;27399;51.516;13.670;2023-08-06T03:02:28;5.80;;;4.55;;
41711;SDS011;27399;51.516;13.670;2023-08-06T03:04:53;7.50;;;4.28;;
41711;SDS011;27399;51.516;13.670;2023-08-06T03:07:19;9.40;;;4.78;;
41711;SDS011;27399;51.516;13.670;2023-08-06T03:09:45;7.18;;;4.43;;
41711;SDS011;27399;51.516;13.670;2023-08-06T03:12:10;6.30;;;4.75;;
41711;SDS011;27399;51.516;13.670;2023-08-06T03:14:36;8.35;;;4.88;;
41711;SDS011;27399;51.516;13.670;2023-08-06T03:17:02;8.73;;;4.25;;
41711;SDS011;27399;51.516;13.670;2023-08-06T03:19:27;7.60;;;4.22;;
41711;SDS011;27399;51.516;13.670;2023-08-06T03:21:53;6.95;;;4.18;;
41711;SDS011;27399;51.516;13.670;2023-08-06T03:24:19;10.20;;;4.13;;
41711;SDS011;27399;51.516;13.670;2023-08-06T03:26:45;7.70;;;4.00;;
41711;SDS011;27399;51.516;13.670;2023-08-06T03:29:10;8.80;;;4.65;;
41711;SDS011;27399;51.516;13.670;2023-08-06T03:31:36;5.78;;;4.38;;
41711;SDS011;27399;51.516;13.670;2023-08-06T03:34:01;7.03;;;3.55;;
41711;SDS011;27399;51.516;13.670;2023-08-06T03:36:27;7.10;;;4.30;;
41711;SDS011;27399;51.516;13.670;2023-08-06T03:38:53;7.70;;;4.05;;
41711;SDS011;27399;51.516;13.670;2023-08-06T03:41:18;8.35;;;4.60;;
41711;SDS011;27399;51.516;13.670;2023-08-06T03:43:44;6.20;;;4.50;;
41711;SDS011;27399;51.516;13.670;2023-08-06T03:46:09;7.10;;;5.00;;
41711;SDS011;27399;51.516;13.670;2023-08-06T03:48:35;5.10;;;4.50;;
41711;SDS011;27399;51.516;13.670;2023-08-06T03:51:00;7.70;;;4.43;;
41711;SDS011;27399;51.516;13.670;2023-08-06T03:53:27;6.30;;;4.63;;
41711;SDS011;27399;51.516;13.670;2023-08-06T03:55:52;8.40;;;4.72;;
41711;SDS011;27399;51.516;13.670;2023-08-06T03:58:18;6.05;;;4.63;;
41711;SDS011;27399;51.516;13.670;2023-08-06T04:00:43;5.03;;;4.53;;
41711;SDS011;27399;51.516;13.670;2023-08-06T04:03:09;8.20;;;4.03;;
41711;SDS011;27399;51.516;13.670;2023-08-06T04:05:35;8.48;;;3.97;;
41711;SDS011;27399;51.516;13.670;2023-08-06T04:08:00;7.47;;;4.95;;
41711;SDS011;27399;51.516;13.670;2023-08-06T04:10:26;9.52;;;4.40;;
41711;SDS011;27399;51.516;13.670;2023-08-06T04:12:52;10.43;;;4.90;;
41711;SDS011;27399;51.516;13.670;2023-08-06T04:15:18;8.60;;;3.90;;
41711;SDS011;27399;51.516;13.670;2023-08-06T04:17:43;8.40;;;4.72;;
41711;SDS011;27399;51.516;13.670;2023-08-06T04:20:09;6.05;;;4.25;;
41711;SDS011;27399;51.516;13.670;2023-08-06T04:22:35;5.97;;;4.03;;
41711;SDS011;27399;51.516;13.670;2023-08-06T04:25:00;6.72;;;4.28;;
41711;SDS011;27399;51.516;13.670;2023-08-06T04:27:26;5.65;;;4.55;;
41711;SDS011;27399;51.516;13.670;2023-08-06T04:29:51;10.02;;;5.03;;
41711;SDS011;27399;51.516;13.670;2023-08-06T04:32:17;7.40;;;4.50;;
41711;SDS011;27399;51.516;13.670;2023-08-06T04:34:44;7.55;;;4.85;;
41711;SDS011;27399;51.516;13.670;2023-08-06T04:37:10;8.85;;;4.80;;
41711;SDS011;27399;51.516;13.670;2023-08-06T04:39:35;7.68;;;4.38;;
41711;SDS011;27399;51.516;13.670;2023-08-06T04:42:01;5.75;;;4.70;;
41711;SDS011;27399;51.516;13.670;2023-08-06T04:44:27;5.32;;;4.32;;
41711;SDS011;27399;51.516;13.670;2023-08-06T04:46:52;6.50;;;4.88;;
41711;SDS011;27399;51.516;13.670;2023-08-06T04:49:19;6.55;;;5.13;;
41711;SDS011;27399;51.516;13.670;2023-08-06T04:51:46;5.65;;;4.22;;
41711;SDS011;27399;51.516;13.670;2023-08-06T04:54:11;4.82;;;4.18;;
41711;SDS011;27399;51.516;13.670;2023-08-06T04:56:37;5.55;;;4.45;;
41711;SDS011;27399;51.516;13.670;2023-08-06T04:59:03;5.20;;;4.53;;
41711;SDS011;27399;51.516;13.670;2023-08-06T05:01:28;7.22;;;4.60;;
41711;SDS011;27399;51.516;13.670;2023-08-06T05:03:54;6.65;;;4.20;;
41711;SDS011;27399;51.516;13.670;2023-08-06T05:06:19;5.35;;;4.20;;
41711;SDS011;27399;51.516;13.670;2023-08-06T05:08:45;8.15;;;4.57;;
41711;SDS011;27399;51.516;13.670;2023-08-06T05:14:21;6.72;;;5.43;;
41711;SDS011;27399;51.516;13.670;2023-08-06T05:16:48;6.32;;;5.13;;
41711;SDS011;27399;51.516;13.670;2023-08-06T05:19:18;7.47;;;4.60;;
41711;SDS011;27399;51.516;13.670;2023-08-06T05:21:43;7.40;;;4.95;;
41711;SDS011;27399;51.516;13.670;2023-08-06T05:24:10;5.70;;;4.60;;
41711;SDS011;27399;51.516;13.670;2023-08-06T05:26:44;6.53;;;4.50;;
41711;SDS011;27399;51.516;13.670;2023-08-06T05:29:19;7.25;;;4.78;;
41711;SDS011;27399;51.516;13.670;2023-08-06T05:31:44;6.72;;;4.55;;
41711;SDS011;27399;51.516;13.670;2023-08-06T05:34:10;8.18;;;4.38;;
41711;SDS011;27399;51.516;13.670;2023-08-06T05:36:40;5.50;;;4.43;;
41711;SDS011;27399;51.516;13.670;2023-08-06T05:39:08;7.20;;;4.90;;
41711;SDS011;27399;51.516;13.670;2023-08-06T05:41:47;6.25;;;4.97;;
41711;SDS011;27399;51.516;13.670;2023-08-06T05:44:57;10.35;;;5.13;;
41711;SDS011;27399;51.516;13.670;2023-08-06T05:47:23;5.68;;;4.60;;
41711;SDS011;27399;51.516;13.670;2023-08-06T05:49:48;7.45;;;4.82;;
41711;SDS011;27399;51.516;13.670;2023-08-06T05:52:14;5.38;;;4.78;;
41711;SDS011;27399;51.516;13.670;2023-08-06T05:54:39;5.88;;;4.82;;
41711;SDS011;27399;51.516;13.670;2023-08-06T05:57:05;7.10;;;4.88;;
41711;SDS011;27399;51.516;13.670;2023-08-06T05:59:31;7.00;;;5.05;;
41711;SDS011;27399;51.516;13.670;2023-08-06T06:01:57;7.72;;;5.20;;
41711;SDS011;27399;51.516;13.670;2023-08-06T06:04:23;7.20;;;5.30;;
41711;SDS011;27399;51.516;13.670;2023-08-06T06:06:48;9.80;;;5.10;;
41711;SDS011;27399;51.516;13.670;2023-08-06T06:09:17;6.15;;;4.55;;
41711;SDS011;27399;51.516;13.670;2023-08-06T06:11:51;7.22;;;4.60;;
41711;SDS011;27399;51.516;13.670;2023-08-06T06:14:22;7.72;;;5.00;;
41711;SDS011;27399;51.516;13.670;2023-08-06T06:16:48;9.02;;;5.00;;
41711;SDS011;27399;51.516;13.670;2023-08-06T06:19:18;5.10;;;4.28;;
41711;SDS011;27399;51.516;13.670;2023-08-06T06:21:43;8.20;;;4.38;;
41711;SDS011;27399;51.516;13.670;2023-08-06T06:24:12;5.20;;;4.20;;
41711;SDS011;27399;51.516;13.670;2023-08-06T06:26:38;5.85;;;4.57;;
41711;SDS011;27399;51.516;13.670;2023-08-06T06:29:04;5.32;;;4.70;;
41711;SDS011;27399;51.516;13.670;2023-08-06T06:31:29;6.95;;;4.10;;
41711;SDS011;27399;51.516;13.670;2023-08-06T06:33:59;6.15;;;4.50;;
41711;SDS011;27399;51.516;13.670;2023-08-06T06:38:52;5.93;;;3.78;;
41711;SDS011;27399;51.516;13.670;2023-08-06T06:41:24;4.80;;;3.90;;
41711;SDS011;27399;51.516;13.670;2023-08-06T06:43:51;4.82;;;3.20;;
41711;SDS011;27399;51.516;13.670;2023-08-06T06:46:24;5.07;;;3.85;;
41711;SDS011;27399;51.516;13.670;2023-08-06T06:49:15;4.40;;;3.75;;
41711;SDS011;27399;51.516;13.670;2023-08-06T06:51:43;4.75;;;3.83;;
41711;SDS011;27399;51.516;13.670;2023-08-06T06:54:33;4.47;;;3.17;;
41711;SDS011;27399;51.516;13.670;2023-08-06T06:57:08;4.47;;;3.20;;
41711;SDS011;27399;51.516;13.670;2023-08-06T06:59:36;3.38;;;3.08;;
41711;SDS011;27399;51.516;13.670;2023-08-06T07:02:03;4.05;;;3.20;;
41711;SDS011;27399;51.516;13.670;2023-08-06T07:04:29;5.57;;;3.60;;
41711;SDS011;27399;51.516;13.670;2023-08-06T07:06:57;4.10;;;3.67;;
41711;SDS011;27399;51.516;13.670;2023-08-06T07:09:22;4.90;;;3.97;;
41711;SDS011;27399;51.516;13.670;2023-08-06T07:11:48;7.00;;;4.40;;
41711;SDS011;27399;51.516;13.670;2023-08-06T07:14:14;6.32;;;3.42;;
41711;SDS011;27399;51.516;13.670;2023-08-06T07:16:41;6.18;;;3.55;;
41711;SDS011;27399;51.516;13.670;2023-08-06T07:19:07;3.17;;;2.80;;
41711;SDS011;27399;51.516;13.670;2023-08-06T07:21:32;3.92;;;2.97;;
41711;SDS011;27399;51.516;13.670;2023-08-06T07:23:58;3.50;;;3.10;;
41711;SDS011;27399;51.516;13.670;2023-08-06T07:26:24;5.78;;;3.63;;
41711;SDS011;27399;51.516;13.670;2023-08-06T07:28:50;3.13;;;2.83;;
41711;SDS011;27399;51.516;13.670;2023-08-06T07:31:16;4.75;;;3.72;;
41711;SDS011;27399;51.516;13.670;2023-08-06T07:33:41;9.30;;;3.70;;
41711;SDS011;27399;51.516;13.670;2023-08-06T07:36:07;4.03;;;3.45;;
41711;SDS011;27399;51.516;13.670;2023-08-06T07:38:35;7.07;;;3.97;;
41711;SDS011;27399;51.516;13.670;2023-08-06T07:41:01;4.03;;;3.20;;
41711;SDS011;27399;51.516;13.670;2023-08-06T07:43:27;4.78;;;3.53;;
41711;SDS011;27399;51.516;13.670;2023-08-06T07:45:53;3.92;;;3.53;;
41711;SDS011;27399;51.516;13.670;2023-08-06T07:48:18;3.45;;;3.00;;
41711;SDS011;27399;51.516;13.670;2023-08-06T07:50:44;2.92;;;2.58;;
41711;SDS011;27399;51.516;13.670;2023-08-06T07:53:15;4.38;;;3.22;;
41711;SDS011;27399;51.516;13.670;2023-08-06T07:55:53;4.47;;;3.03;;
41711;SDS011;27399;51.516;13.670;2023-08-06T07:58:19;3.15;;;2.85;;
41711;SDS011;27399;51.516;13.670;2023-08-06T08:00:51;4.47;;;3.50;;
41711;SDS011;27399;51.516;13.670;2023-08-06T08:03:17;3.92;;;3.60;;
41711;SDS011;27399;51.516;13.670;2023-08-06T08:05:46;3.85;;;3.40;;
41711;SDS011;27399;51.516;13.670;2023-08-06T08:08:15;3.30;;;3.00;;
41711;SDS011;27399;51.516;13.670;2023-08-06T08:10:41;3.63;;;3.30;;
41711;SDS011;27399;51.516;13.670;2023-08-06T08:13:07;4.13;;;3.38;;
41711;SDS011;27399;51.516;13.670;2023-08-06T08:15:33;4.10;;;2.83;;
41711;SDS011;27399;51.516;13.670;2023-08-06T08:17:59;3.95;;;3.35;;
41711;SDS011;27399;51.516;13.670;2023-08-06T08:20:25;5.10;;;3.88;;
41711;SDS011;27399;51.516;13.670;2023-08-06T08:22:56;4.13;;;3.67;;
41711;SDS011;27399;51.516;13.670;2023-08-06T08:25:23;4.85;;;4.43;;
41711;SDS011;27399;51.516;13.670;2023-08-06T08:27:48;5.55;;;4.05;;
41711;SDS011;27399;51.516;13.670;2023-08-06T08:30:14;6.10;;;5.38;;
41711;SDS011;27399;51.516;13.670;2023-08-06T08:32:40;5.03;;;4.32;;
41711;SDS011;27399;51.516;13.670;2023-08-06T08:35:05;4.80;;;4.22;;
41711;SDS011;27399;51.516;13.670;2023-08-06T08:37:31;5.13;;;4.60;;
41711;SDS011;27399;51.516;13.670;2023-08-06T08:39:59;4.38;;;3.95;;
41711;SDS011;27399;51.516;13.670;2023-08-06T08:42:25;4.55;;;4.13;;
41711;SDS011;27399;51.516;13.670;2023-08-06T08:44:52;5.65;;;4.40;;
41711;SDS011;27399;51.516;13.670;2023-08-06T08:47:19;10.82;;;4.68;;
41711;SDS011;27399;51.516;13.670;2023-08-06T08:49:45;4.22;;;3.83;;
41711;SDS011;27399;51.516;13.670;2023-08-06T08:52:16;4.47;;;3.15;;
41711;SDS011;27399;51.516;13.670;2023-08-06T08:54:43;4.57;;;3.60;;
41711;SDS011;27399;51.516;13.670;2023-08-06T08:57:11;4.75;;;3.80;;
41711;SDS011;27399;51.516;13.670;2023-08-06T08:59:36;4.88;;;3.63;;
41711;SDS011;27399;51.516;13.670;2023-08-06T09:02:02;4.95;;;3.88;;
41711;SDS011;27399;51.516;13.670;2023-08-06T09:04:30;3.60;;;3.15;;
41711;SDS011;27399;51.516;13.670;2023-08-06T09:06:57;3.30;;;3.00;;
41711;SDS011;27399;51.516;13.670;2023-08-06T09:09:25;3.40;;;3.05;;
41711;SDS011;27399;51.516;13.670;2023-08-06T09:11:53;5.25;;;3.15;;
41711;SDS011;27399;51.516;13.670;2023-08-06T09:14:26;3.53;;;3.22;;
41711;SDS011;27399;51.516;13.670;2023-08-06T09:16:52;3.15;;;2.85;;
41711;SDS011;27399;51.516;13.670;2023-08-06T09:19:17;3.72;;;3.38;;
41711;SDS011;27399;51.516;13.670;2023-08-06T09:21:45;4.30;;;3.22;;
41711;SDS011;27399;51.516;13.670;2023-08-06T09:26:40;3.30;;;3.00;;
41711;SDS011;27399;51.516;13.670;2023-08-06T09:29:08;4.25;;;3.83;;
41711;SDS011;27399;51.516;13.670;2023-08-06T09:31:42;6.63;;;3.13;;
41711;SDS011;27399;51.516;13.670;2023-08-06T09:34:14;4.00;;;2.85;;
41711;SDS011;27399;51.516;13.670;2023-08-06T09:36:48;3.95;;;3.35;;
41711;SDS011;27399;51.516;13.670;2023-08-06T09:39:27;4.35;;;3.60;;
41711;SDS011;27399;51.516;13.670;2023-08-06T09:41:57;5.63;;;3.60;;
41711;SDS011;27399;51.516;13.670;2023-08-06T09:44:25;3.70;;;3.00;;
41711;SDS011;27399;51.516;13.670;2023-08-06T09:46:53;5.97;;;2.90;;
41711;SDS011;27399;51.516;13.670;2023-08-06T09:49:41;5.47;;;3.42;;
41711;SDS011;27399;51.516;13.670;2023-08-06T09:52:13;6.88;;;4.25;;
41711;SDS011;27399;51.516;13.670;2023-08-06T09:54:41;6.65;;;3.72;;
41711;SDS011;27399;51.516;13.670;2023-08-06T09:57:08;3.92;;;3.40;;
41711;SDS011;27399;51.516;13.670;2023-08-06T09:59:34;4.03;;;3.63;;
41711;SDS011;27399;51.516;13.670;2023-08-06T10:02:02;5.03;;;3.95;;
41711;SDS011;27399;51.516;13.670;2023-08-06T10:04:31;4.72;;;3.70;;
41711;SDS011;27399;51.516;13.670;2023-08-06T10:06:57;4.30;;;3.90;;
41711;SDS011;27399;51.516;13.670;2023-08-06T10:09:29;5.40;;;3.80;;
41711;SDS011;27399;51.516;13.670;2023-08-06T10:11:57;5.78;;;3.20;;
41711;SDS011;27399;51.516;13.670;2023-08-06T10:14:25;7.32;;;3.95;;
41711;SDS011;27399;51.516;13.670;2023-08-06T10:17:02;3.60;;;3.30;;
41711;SDS011;27399;51.516;13.670;2023-08-06T10:19:41;7.90;;;3.20;;
41711;SDS011;27399;51.516;13.670;2023-08-06T10:22:09;6.07;;;3.90;;
41711;SDS011;27399;51.516;13.670;2023-08-06T10:24:56;9.65;;;3.90;;
41711;SDS011;27399;51.516;13.670;2023-08-06T10:27:34;7.20;;;4.78;;
41711;SDS011;27399;51.516;13.670;2023-08-06T10:30:26;4.47;;;3.85;;
41711;SDS011;27399;51.516;13.670;2023-08-06T10:32:56;4.22;;;3.83;;
41711;SDS011;27399;51.516;13.670;2023-08-06T10:35:44;7.82;;;4.15;;
41711;SDS011;27399;51.516;13.670;2023-08-06T10:38:20;4.55;;;3.30;;
41711;SDS011;27399;51.516;13.670;2023-08-06T10:41:00;4.07;;;3.67;;
41711;SDS011;27399;51.516;13.670;2023-08-06T10:43:34;4.75;;;4.35;;
41711;SDS011;27399;51.516;13.670;2023-08-06T10:46:20;4.53;;;3.90;;
41711;SDS011;27399;51.516;13.670;2023-08-06T10:49:16;4.63;;;4.18;;
41711;SDS011;27399;51.516;13.670;2023-08-06T10:52:13;5.07;;;4.25;;
41711;SDS011;27399;51.516;13.670;2023-08-06T10:54:39;5.05;;;3.70;;
41711;SDS011;27399;51.516;13.670;2023-08-06T10:57:08;8.75;;;3.80;;
41711;SDS011;27399;51.516;13.670;2023-08-06T10:59:49;5.80;;;4.32;;
41711;SDS011;27399;51.516;13.670;2023-08-06T11:02:21;6.15;;;4.25;;
41711;SDS011;27399;51.516;13.670;2023-08-06T11:04:57;5.00;;;4.07;;
41711;SDS011;27399;51.516;13.670;2023-08-06T11:07:44;4.40;;;4.00;;
41711;SDS011;27399;51.516;13.670;2023-08-06T11:10:16;4.63;;;3.75;;
41711;SDS011;27399;51.516;13.670;2023-08-06T11:12:49;4.43;;;3.83;;
41711;SDS011;27399;51.516;13.670;2023-08-06T11:15:23;4.43;;;3.40;;
41711;SDS011;27399;51.516;13.670;2023-08-06T11:17:53;8.00;;;3.25;;
41711;SDS011;27399;51.516;13.670;2023-08-06T11:20:20;7.65;;;3.65;;
41711;SDS011;27399;51.516;13.670;2023-08-06T11:22:53;5.03;;;3.63;;
41711;SDS011;27399;51.516;13.670;2023-08-06T11:25:24;5.35;;;3.63;;
41711;SDS011;27399;51.516;13.670;2023-08-06T11:28:04;4.95;;;3.72;;
41711;SDS011;27399;51.516;13.670;2023-08-06T11:30:35;7.03;;;4.18;;
41711;SDS011;27399;51.516;13.670;2023-08-06T11:33:10;4.93;;;4.43;;
41711;SDS011;27399;51.516;13.670;2023-08-06T11:35:37;6.03;;;4.00;;
41711;SDS011;27399;51.516;13.670;2023-08-06T11:38:03;19.80;;;5.00;;
41711;SDS011;27399;51.516;13.670;2023-08-06T11:40:29;5.70;;;4.30;;
41711;SDS011;27399;51.516;13.670;2023-08-06T11:42:55;6.72;;;4.80;;
41711;SDS011;27399;51.516;13.670;2023-08-06T11:45:24;7.55;;;4.72;;
41711;SDS011;27399;51.516;13.670;2023-08-06T11:47:50;4.82;;;4.22;;
41711;SDS011;27399;51.516;13.670;2023-08-06T11:50:23;6.13;;;4.57;;
41711;SDS011;27399;51.516;13.670;2023-08-06T11:52:56;4.85;;;4.35;;
41711;SDS011;27399;51.516;13.670;2023-08-06T11:55:23;9.07;;;5.35;;
41711;SDS011;27399;51.516;13.670;2023-08-06T11:57:50;6.10;;;5.40;;
41711;SDS011;27399;51.516;13.670;2023-08-06T12:00:16;6.00;;;5.40;;
41711;SDS011;27399;51.516;13.670;2023-08-06T12:02:43;5.45;;;4.85;;
41711;SDS011;27399;51.516;13.670;2023-08-06T12:05:19;6.50;;;5.70;;
41711;SDS011;27399;51.516;13.670;2023-08-06T12:07:47;5.57;;;4.55;;
41711;SDS011;27399;51.516;13.670;2023-08-06T12:10:14;7.82;;;4.75;;
41711;SDS011;27399;51.516;13.670;2023-08-06T12:13:26;5.72;;;5.05;;
41711;SDS011;27399;51.516;13.670;2023-08-06T12:15:53;7.03;;;5.47;;
41711;SDS011;27399;51.516;13.670;2023-08-06T12:18:23;8.05;;;5.82;;
41711;SDS011;27399;51.516;13.670;2023-08-06T12:20:48;5.50;;;4.28;;
41711;SDS011;27399;51.516;13.670;2023-08-06T12:23:15;8.38;;;4.43;;
41711;SDS011;27399;51.516;13.670;2023-08-06T12:25:41;5.80;;;4.30;;
41711;SDS011;27399;51.516;13.670;2023-08-06T12:28:08;5.70;;;5.10;;
41711;SDS011;27399;51.516;13.670;2023-08-06T12:30:34;5.53;;;4.80;;
41711;SDS011;27399;51.516;13.670;2023-08-06T12:33:00;5.03;;;4.00;;
41711;SDS011;27399;51.516;13.670;2023-08-06T12:35:47;4.32;;;3.92;;
41711;SDS011;27399;51.516;13.670;2023-08-06T12:38:34;5.28;;;3.95;;
41711;SDS011;27399;51.516;13.670;2023-08-06T12:40:59;4.40;;;3.53;;
41711;SDS011;27399;51.516;13.670;2023-08-06T12:43:25;4.28;;;3.53;;
41711;SDS011;27399;51.516;13.670;2023-08-06T12:45:50;4.65;;;3.60;;
41711;SDS011;27399;51.516;13.670;2023-08-06T12:48:16;5.10;;;4.60;;
41711;SDS011;27399;51.516;13.670;2023-08-06T12:50:42;6.45;;;3.85;;
41711;SDS011;27399;51.516;13.670;2023-08-06T12:53:08;4.85;;;3.95;;
41711;SDS011;27399;51.516;13.670;2023-08-06T12:55:34;5.90;;;4.18;;
41711;SDS011;27399;51.516;13.670;2023-08-06T12:57:59;5.63;;;5.05;;
41711;SDS011;27399;51.516;13.670;2023-08-06T13:00:26;6.40;;;4.68;;
41711;SDS011;27399;51.516;13.670;2023-08-06T13:02:51;5.57;;;4.22;;
41711;SDS011;27399;51.516;13.670;2023-08-06T13:05:17;8.20;;;4.35;;
41711;SDS011;27399;51.516;13.670;2023-08-06T13:07:43;5.72;;;4.97;;
41711;SDS011;27399;51.516;13.670;2023-08-06T13:10:08;6.28;;;4.50;;
41711;SDS011;27399;51.516;13.670;2023-08-06T13:12:34;5.68;;;4.55;;
41711;SDS011;27399;51.516;13.670;2023-08-06T13:15:00;5.85;;;5.25;;
41711;SDS011;27399;51.516;13.670;2023-08-06T13:17:25;5.18;;;4.68;;
41711;SDS011;27399;51.516;13.670;2023-08-06T13:19:52;9.73;;;6.43;;
41711;SDS011;27399;51.516;13.670;2023-08-06T13:22:17;6.95;;;5.38;;
41711;SDS011;27399;51.516;13.670;2023-08-06T13:24:43;8.70;;;5.68;;
41711;SDS011;27399;51.516;13.670;2023-08-06T13:27:08;6.20;;;4.80;;
41711;SDS011;27399;51.516;13.670;2023-08-06T13:29:34;6.95;;;4.18;;
41711;SDS011;27399;51.516;13.670;2023-08-06T13:32:00;6.65;;;4.68;;
41711;SDS011;27399;51.516;13.670;2023-08-06T13:34:26;8.00;;;4.97;;
41711;SDS011;27399;51.516;13.670;2023-08-06T13:36:51;6.05;;;5.30;;
41711;SDS011;27399;51.516;13.670;2023-08-06T13:39:17;6.93;;;5.80;;
41711;SDS011;27399;51.516;13.670;2023-08-06T13:41:43;5.97;;;5.38;;
41711;SDS011;27399;51.516;13.670;2023-08-06T13:44:09;7.70;;;6.30;;
41711;SDS011;27399;51.516;13.670;2023-08-06T13:46:35;6.78;;;5.35;;
41711;SDS011;27399;51.516;13.670;2023-08-06T13:49:01;7.15;;;6.25;;
41711;SDS011;27399;51.516;13.670;2023-08-06T13:51:27;7.05;;;5.07;;
41711;SDS011;27399;51.516;13.670;2023-08-06T13:53:53;6.35;;;5.70;;
41711;SDS011;27399;51.516;13.670;2023-08-06T13:56:19;8.05;;;6.35;;
41711;SDS011;27399;51.516;13.670;2023-08-06T13:58:45;6.05;;;5.15;;
41711;SDS011;27399;51.516;13.670;2023-08-06T14:01:11;9.57;;;6.47;;
41711;SDS011;27399;51.516;13.670;2023-08-06T14:03:36;10.68;;;5.53;;
41711;SDS011;27399;51.516;13.670;2023-08-06T14:06:02;8.85;;;5.65;;
41711;SDS011;27399;51.516;13.670;2023-08-06T14:08:28;9.48;;;6.53;;
41711;SDS011;27399;51.516;13.670;2023-08-06T14:10:53;6.95;;;6.05;;
41711;SDS011;27399;51.516;13.670;2023-08-06T14:13:19;6.43;;;5.53;;
41711;SDS011;27399;51.516;13.670;2023-08-06T14:15:47;7.30;;;5.47;;
41711;SDS011;27399;51.516;13.670;2023-08-06T14:18:13;7.90;;;6.50;;
41711;SDS011;27399;51.516;13.670;2023-08-06T14:20:40;6.32;;;5.72;;
41711;SDS011;27399;51.516;13.670;2023-08-06T14:23:06;10.27;;;6.00;;
41711;SDS011;27399;51.516;13.670;2023-08-06T14:25:32;6.43;;;5.72;;
41711;SDS011;27399;51.516;13.670;2023-08-06T14:27:57;7.43;;;5.53;;
41711;SDS011;27399;51.516;13.670;2023-08-06T14:30:23;6.82;;;6.10;;
41711;SDS011;27399;51.516;13.670;2023-08-06T14:32:49;6.85;;;6.13;;
41711;SDS011;27399;51.516;13.670;2023-08-06T14:35:14;6.25;;;5.65;;
41711;SDS011;27399;51.516;13.670;2023-08-06T14:37:40;10.05;;;6.93;;
41711;SDS011;27399;51.516;13.670;2023-08-06T14:40:06;8.57;;;6.32;;
41711;SDS011;27399;51.516;13.670;2023-08-06T14:42:33;12.05;;;7.07;;
41711;SDS011;27399;51.516;13.670;2023-08-06T14:44:58;7.65;;;6.43;;
41711;SDS011;27399;51.516;13.670;2023-08-06T14:47:24;7.75;;;6.55;;
41711;SDS011;27399;51.516;13.670;2023-08-06T14:49:50;7.18;;;5.78;;